Terminal Aerodrome Forecast
Issued by NWS Mt. Holly, NJ

Home | Current Version | Previous Version | Text Only | Print | Product List | Glossary On
Versions: 1 2 3 4 5 6 7 8 9 10 11 12 13 14 15 16 17 18 19
195
FTUS41 KPHI 230241 AAA
TAFABE
TAF AMD
KABE 230241Z 2303/2324 VRB02KT P6SM OVC010
      TEMPO 2303/2306 4SM BR
     FM231100 02004KT P6SM SCT008 BKN150
     FM231300 05005KT P6SM BKN250
     FM232000 VRB04KT P6SM BKN050 OVC150=

USA.gov is the U.S. government's official web portal to all federal, state and local government web resources and services.